SAOC/RCU METAR and TAF weather

Enter ICAO airport designator
Station Type Date Time Source
SAOC METAR 2020/09/30 15:00 UTC NOAA

SAOC 301500Z 16013KT 8000 NSC 27/07 Q1006


Station Type Date Time Source
SAOC Decoded METAR 2020/09/30 15:00 UTC NOAA

Rio Cuarto Aerodrome, Argentina (SAOC) 33-07S 064-14W 421M
Sep 30, 2020 - 11:00 AM EDT / 2020.09.30 1500 UTC
Wind: from the SSE (160 degrees) at 15 MPH (13 KT):0
Visibility: 4 mile(s):0
Temperature: 80 F (27 C)
Dew Point: 44 F (7 C)
Relative Humidity: 28%
Pressure (altimeter): 29.71 in. Hg (1006 hPa)
ob: SAOC 301500Z 16013KT 8000 NSC 27/07 Q1006
cycle: 15

Station Type Date Time Source
SAOC TAF 2020/07/27 06:11 UTC NOAA

TAF SAOC 270500Z 2706/2806 25010KT CAVOK TX14/2718Z TN03/2710Z
BECMG 2714/2716 18015G25KT
BECMG 2721/2723 23005KT

Example: see airport list